West Woodward Airport Woodward US
ICAO: KWWR
IATA: WWR
Category: Medium
Scheduled Services: No

Elevation: 2189 ft
TransAlt. 18000 ft.

Airport Communications:
AWOS 3:118.425
KANSAS CITY CNTR:126.95
CTAF/UNICOM:122.8

KWWR Zoom In..

If you have problems with the map follow the link
https://www.worldairports.se/pages/airport.php?
ICAO=KWWR

Runways:

(A) RW 05 length 2500 ft width 60 ft
---- / hdg 52

(B) RW 17 length 5502 ft width 100 ft
---- / hdg 172

(C) RW 23 length 2500 ft width 60 ft
---- / hdg 232

(D) RW 35 length 5502 ft width 100 ft
---- / hdg 352

Location; KWWR
Day. 22 / Time. 13.40 Zulu
* Altimeter: 29.86
* Temperature: 03° c. 37.4°f.
* Wind from: 170° Speed 15 kn with Gusts up to 22 kn.
Dewpoint: 02° c.
Visibility: 10 Statute Miles.
Clouds: Overcast 500 ft.

KWWR 221340Z AUTO 17015G22KT 10SM OVC005 03/02 A2986 RMK AO2


Wind From 170°
Speed 15 kn.

 
 
jpsmedia worldairports.se 2020   terms of use